sensor_id;sensor_type;location;lat;lon;timestamp;pressure;altitude;pressure_sealevel;temperature;humidity
61472;BME280;47337;54.068;12.114;2023-03-03T00:00:02;102133.72;;;0.56;100.00
61472;BME280;47337;54.068;12.114;2023-03-03T00:02:28;102147.88;;;0.61;100.00
61472;BME280;47337;54.068;12.114;2023-03-03T00:04:53;102148.06;;;0.64;100.00
61472;BME280;47337;54.068;12.114;2023-03-03T00:07:19;102151.47;;;0.52;100.00
61472;BME280;47337;54.068;12.114;2023-03-03T00:09:48;102153.16;;;0.63;100.00
61472;BME280;47337;54.068;12.114;2023-03-03T00:12:27;102147.88;;;0.61;100.00
61472;BME280;47337;54.068;12.114;2023-03-03T00:14:53;102143.59;;;0.62;100.00
61472;BME280;47337;54.068;12.114;2023-03-03T00:17:29;102150.09;;;0.68;100.00
61472;BME280;47337;54.068;12.114;2023-03-03T00:19:58;102153.22;;;0.64;100.00
61472;BME280;47337;54.068;12.114;2023-03-03T00:25:27;102152.56;;;0.67;100.00
61472;BME280;47337;54.068;12.114;2023-03-03T00:27:59;102148.31;;;0.67;100.00
61472;BME280;47337;54.068;12.114;2023-03-03T00:30:26;102141.78;;;0.72;100.00
61472;BME280;47337;54.068;12.114;2023-03-03T00:32:53;102143.00;;;0.78;100.00
61472;BME280;47337;54.068;12.114;2023-03-03T00:35:30;102144.81;;;0.79;100.00
61472;BME280;47337;54.068;12.114;2023-03-03T00:38:01;102153.78;;;0.84;100.00
61472;BME280;47337;54.068;12.114;2023-03-03T00:40:37;102152.66;;;0.80;100.00
61472;BME280;47337;54.068;12.114;2023-03-03T00:43:23;102151.22;;;0.84;100.00
61472;BME280;47337;54.068;12.114;2023-03-03T00:45:56;102162.34;;;0.83;100.00
61472;BME280;47337;54.068;12.114;2023-03-03T00:48:28;102164.31;;;0.87;100.00
61472;BME280;47337;54.068;12.114;2023-03-03T00:50:59;102160.41;;;0.92;100.00
61472;BME280;47337;54.068;12.114;2023-03-03T00:53:29;102158.88;;;0.70;100.00
61472;BME280;47337;54.068;12.114;2023-03-03T00:55:55;102153.22;;;0.76;100.00
61472;BME280;47337;54.068;12.114;2023-03-03T00:58:22;102142.34;;;0.68;100.00
61472;BME280;47337;54.068;12.114;2023-03-03T01:00:50;102145.69;;;0.91;100.00
61472;BME280;47337;54.068;12.114;2023-03-03T01:03:20;102144.66;;;0.89;100.00
61472;BME280;47337;54.068;12.114;2023-03-03T01:05:46;102141.06;;;0.87;100.00
61472;BME280;47337;54.068;12.114;2023-03-03T01:08:15;102129.94;;;0.88;100.00
61472;BME280;47337;54.068;12.114;2023-03-03T01:10:44;102139.13;;;0.96;100.00
61472;BME280;47337;54.068;12.114;2023-03-03T01:13:10;102141.53;;;0.93;100.00
61472;BME280;47337;54.068;12.114;2023-03-03T01:15:38;102143.63;;;0.98;100.00
61472;BME280;47337;54.068;12.114;2023-03-03T01:18:05;102128.91;;;0.97;100.00
61472;BME280;47337;54.068;12.114;2023-03-03T01:20:30;102133.97;;;0.96;100.00
61472;BME280;47337;54.068;12.114;2023-03-03T01:22:58;102137.13;;;0.92;100.00
61472;BME280;47337;54.068;12.114;2023-03-03T01:25:24;102132.38;;;0.98;100.00
61472;BME280;47337;54.068;12.114;2023-03-03T01:27:51;102128.44;;;1.03;100.00
61472;BME280;47337;54.068;12.114;2023-03-03T01:30:17;102132.50;;;0.99;100.00
61472;BME280;47337;54.068;12.114;2023-03-03T01:32:42;102128.88;;;1.09;100.00
61472;BME280;47337;54.068;12.114;2023-03-03T01:35:08;102127.97;;;1.08;100.00
61472;BME280;47337;54.068;12.114;2023-03-03T01:37:36;102128.66;;;1.06;100.00
61472;BME280;47337;54.068;12.114;2023-03-03T01:40:04;102121.47;;;1.02;100.00
61472;BME280;47337;54.068;12.114;2023-03-03T01:42:34;102129.78;;;1.09;100.00
61472;BME280;47337;54.068;12.114;2023-03-03T01:45:10;102134.03;;;1.09;100.00
61472;BME280;47337;54.068;12.114;2023-03-03T01:47:36;102137.53;;;1.09;100.00
61472;BME280;47337;54.068;12.114;2023-03-03T01:50:12;102140.63;;;1.17;100.00
61472;BME280;47337;54.068;12.114;2023-03-03T01:52:45;102138.44;;;1.10;100.00
61472;BME280;47337;54.068;12.114;2023-03-03T01:55:22;102156.16;;;1.17;100.00
61472;BME280;47337;54.068;12.114;2023-03-03T01:57:56;102152.44;;;1.25;100.00
61472;BME280;47337;54.068;12.114;2023-03-03T02:00:23;102144.34;;;1.21;100.00
61472;BME280;47337;54.068;12.114;2023-03-03T02:02:49;102143.34;;;1.19;100.00
61472;BME280;47337;54.068;12.114;2023-03-03T02:05:16;102142.31;;;1.17;100.00
61472;BME280;47337;54.068;12.114;2023-03-03T02:07:44;102146.44;;;1.01;100.00
61472;BME280;47337;54.068;12.114;2023-03-03T02:10:15;102143.97;;;1.03;100.00
61472;BME280;47337;54.068;12.114;2023-03-03T02:12:49;102131.03;;;1.03;100.00
61472;BME280;47337;54.068;12.114;2023-03-03T02:17:48;102116.72;;;0.83;100.00
61472;BME280;47337;54.068;12.114;2023-03-03T02:22:52;102117.53;;;0.70;100.00
61472;BME280;47337;54.068;12.114;2023-03-03T02:25:32;102114.03;;;0.70;100.00
61472;BME280;47337;54.068;12.114;2023-03-03T02:27:59;102115.50;;;0.66;100.00
61472;BME280;47337;54.068;12.114;2023-03-03T02:30:24;102117.97;;;0.65;100.00
61472;BME280;47337;54.068;12.114;2023-03-03T02:32:50;102114.72;;;0.67;100.00
61472;BME280;47337;54.068;12.114;2023-03-03T02:35:28;102112.13;;;0.67;100.00
61472;BME280;47337;54.068;12.114;2023-03-03T02:37:57;102115.72;;;0.69;100.00
61472;BME280;47337;54.068;12.114;2023-03-03T02:40:25;102127.84;;;0.82;100.00
61472;BME280;47337;54.068;12.114;2023-03-03T02:42:52;102121.53;;;0.79;100.00
61472;BME280;47337;54.068;12.114;2023-03-03T02:45:20;102122.56;;;0.69;100.00
61472;BME280;47337;54.068;12.114;2023-03-03T02:47:49;102122.16;;;0.63;100.00
61472;BME280;47337;54.068;12.114;2023-03-03T02:50:17;102112.00;;;0.66;100.00
61472;BME280;47337;54.068;12.114;2023-03-03T02:52:42;102111.13;;;0.65;100.00
61472;BME280;47337;54.068;12.114;2023-03-03T02:55:08;102115.16;;;0.73;100.00
61472;BME280;47337;54.068;12.114;2023-03-03T02:57:33;102106.41;;;0.71;100.00
61472;BME280;47337;54.068;12.114;2023-03-03T02:59:59;102106.84;;;0.66;100.00
61472;BME280;47337;54.068;12.114;2023-03-03T03:02:27;102096.41;;;0.64;100.00
61472;BME280;47337;54.068;12.114;2023-03-03T03:04:52;102113.72;;;0.54;100.00
61472;BME280;47337;54.068;12.114;2023-03-03T03:07:20;102104.75;;;0.49;100.00
61472;BME280;47337;54.068;12.114;2023-03-03T03:09:45;102101.69;;;0.54;100.00
61472;BME280;47337;54.068;12.114;2023-03-03T03:12:12;102091.50;;;0.44;100.00
61472;BME280;47337;54.068;12.114;2023-03-03T03:14:37;102077.78;;;0.45;100.00
61472;BME280;47337;54.068;12.114;2023-03-03T03:17:02;102069.03;;;0.43;100.00
61472;BME280;47337;54.068;12.114;2023-03-03T03:19:30;102074.91;;;0.41;100.00
61472;BME280;47337;54.068;12.114;2023-03-03T03:21:55;102068.47;;;0.47;100.00
61472;BME280;47337;54.068;12.114;2023-03-03T03:24:21;102080.59;;;0.48;100.00
61472;BME280;47337;54.068;12.114;2023-03-03T03:26:48;102068.59;;;0.49;100.00
61472;BME280;47337;54.068;12.114;2023-03-03T03:29:14;102071.97;;;0.36;100.00
61472;BME280;47337;54.068;12.114;2023-03-03T03:31:39;102060.19;;;0.28;100.00
61472;BME280;47337;54.068;12.114;2023-03-03T03:34:05;102057.84;;;0.31;100.00
61472;BME280;47337;54.068;12.114;2023-03-03T03:36:30;102055.59;;;0.24;100.00
61472;BME280;47337;54.068;12.114;2023-03-03T03:38:55;102060.56;;;0.21;100.00
61472;BME280;47337;54.068;12.114;2023-03-03T03:41:22;102055.59;;;0.24;100.00
61472;BME280;47337;54.068;12.114;2023-03-03T03:43:49;102064.78;;;0.32;100.00
61472;BME280;47337;54.068;12.114;2023-03-03T03:46:17;102072.75;;;0.35;100.00
61472;BME280;47337;54.068;12.114;2023-03-03T03:48:42;102076.00;;;0.32;100.00
61472;BME280;47337;54.068;12.114;2023-03-03T03:51:10;102085.56;;;0.33;100.00
61472;BME280;47337;54.068;12.114;2023-03-03T03:53:36;102084.22;;;0.27;100.00
61472;BME280;47337;54.068;12.114;2023-03-03T03:56:01;102086.81;;;0.27;100.00
61472;BME280;47337;54.068;12.114;2023-03-03T03:58:27;102086.56;;;0.24;100.00
61472;BME280;47337;54.068;12.114;2023-03-03T04:00:52;102091.19;;;0.16;100.00
61472;BME280;47337;54.068;12.114;2023-03-03T04:03:17;102082.78;;;0.19;100.00
61472;BME280;47337;54.068;12.114;2023-03-03T04:05:43;102091.97;;;0.15;100.00
61472;BME280;47337;54.068;12.114;2023-03-03T04:08:09;102084.88;;;0.13;100.00
61472;BME280;47337;54.068;12.114;2023-03-03T04:10:35;102080.50;;;0.12;100.00
61472;BME280;47337;54.068;12.114;2023-03-03T04:13:00;102071.88;;;0.11;100.00
61472;BME280;47337;54.068;12.114;2023-03-03T04:15:25;102070.66;;;0.18;100.00
61472;BME280;47337;54.068;12.114;2023-03-03T04:17:51;102063.13;;;0.09;100.00
61472;BME280;47337;54.068;12.114;2023-03-03T04:20:19;102070.09;;;0.10;100.00
61472;BME280;47337;54.068;12.114;2023-03-03T04:22:44;102066.63;;;0.10;100.00
61472;BME280;47337;54.068;12.114;2023-03-03T04:25:15;102066.03;;;0.14;100.00
61472;BME280;47337;54.068;12.114;2023-03-03T04:27:41;102066.38;;;0.07;100.00
61472;BME280;47337;54.068;12.114;2023-03-03T04:30:08;102062.78;;;0.05;100.00
61472;BME280;47337;54.068;12.114;2023-03-03T04:32:34;102066.50;;;0.08;100.00
61472;BME280;47337;54.068;12.114;2023-03-03T04:34:59;102073.56;;;0.11;100.00
61472;BME280;47337;54.068;12.114;2023-03-03T04:37:25;102069.22;;;0.10;100.00
61472;BME280;47337;54.068;12.114;2023-03-03T04:39:50;102067.84;;;0.03;100.00
61472;BME280;47337;54.068;12.114;2023-03-03T04:42:18;102059.19;;;0.03;100.00
61472;BME280;47337;54.068;12.114;2023-03-03T04:44:46;102068.63;;;0.02;100.00
61472;BME280;47337;54.068;12.114;2023-03-03T04:47:14;102062.47;;;0.00;100.00
61472;BME280;47337;54.068;12.114;2023-03-03T04:49:39;102068.75;;;0.04;100.00
61472;BME280;47337;54.068;12.114;2023-03-03T04:52:04;102068.50;;;0.00;100.00
61472;BME280;47337;54.068;12.114;2023-03-03T04:54:32;102076.38;;;0.02;100.00
61472;BME280;47337;54.068;12.114;2023-03-03T04:56:58;102081.88;;;0.07;100.00
61472;BME280;47337;54.068;12.114;2023-03-03T04:59:23;102088.59;;;0.05;100.00
61472;BME280;47337;54.068;12.114;2023-03-03T05:01:49;102092.53;;;0.11;100.00
61472;BME280;47337;54.068;12.114;2023-03-03T05:04:15;102086.03;;;0.05;100.00
61472;BME280;47337;54.068;12.114;2023-03-03T05:06:40;102081.63;;;0.04;100.00
61472;BME280;47337;54.068;12.114;2023-03-03T05:09:06;102088.16;;;-0.02;100.00
61472;BME280;47337;54.068;12.114;2023-03-03T05:11:31;102093.66;;;0.03;100.00
61472;BME280;47337;54.068;12.114;2023-03-03T05:13:57;102088.28;;;0.00;100.00
61472;BME280;47337;54.068;12.114;2023-03-03T05:16:23;102086.91;;;-0.07;100.00
61472;BME280;47337;54.068;12.114;2023-03-03T05:18:48;102096.47;;;-0.06;100.00
61472;BME280;47337;54.068;12.114;2023-03-03T05:21:13;102096.22;;;-0.09;100.00
61472;BME280;47337;54.068;12.114;2023-03-03T05:23:39;102095.22;;;-0.11;100.00
61472;BME280;47337;54.068;12.114;2023-03-03T05:26:05;102101.72;;;-0.04;100.00
61472;BME280;47337;54.068;12.114;2023-03-03T05:28:31;102108.94;;;0.00;100.00
61472;BME280;47337;54.068;12.114;2023-03-03T05:30:56;102102.19;;;0.02;100.00
61472;BME280;47337;54.068;12.114;2023-03-03T05:33:22;102097.78;;;0.01;100.00
61472;BME280;47337;54.068;12.114;2023-03-03T05:35:54;102102.41;;;-0.07;100.00
61472;BME280;47337;54.068;12.114;2023-03-03T05:38:20;102101.38;;;0.03;100.00
61472;BME280;47337;54.068;12.114;2023-03-03T05:40:46;102095.91;;;-0.02;100.00
61472;BME280;47337;54.068;12.114;2023-03-03T05:43:11;102101.28;;;0.02;100.00
61472;BME280;47337;54.068;12.114;2023-03-03T05:48:05;102103.19;;;0.04;100.00
61472;BME280;47337;54.068;12.114;2023-03-03T05:50:35;102098.03;;;0.04;100.00
61472;BME280;47337;54.068;12.114;2023-03-03T05:53:00;102095.56;;;0.06;100.00
61472;BME280;47337;54.068;12.114;2023-03-03T05:55:28;102099.38;;;-0.01;100.00
61472;BME280;47337;54.068;12.114;2023-03-03T05:57:54;102096.91;;;0.00;100.00
61472;BME280;47337;54.068;12.114;2023-03-03T06:00:20;102102.97;;;0.01;100.00
61472;BME280;47337;54.068;12.114;2023-03-03T06:02:46;102096.09;;;0.02;100.00
61472;BME280;47337;54.068;12.114;2023-03-03T06:05:11;102107.47;;;0.04;100.00
61472;BME280;47337;54.068;12.114;2023-03-03T06:07:36;102098.69;;;0.02;100.00
61472;BME280;47337;54.068;12.114;2023-03-03T06:10:03;102104.22;;;0.06;100.00
61472;BME280;47337;54.068;12.114;2023-03-03T06:12:31;102101.63;;;0.06;100.00
61472;BME280;47337;54.068;12.114;2023-03-03T06:14:57;102108.25;;;0.03;100.00
61472;BME280;47337;54.068;12.114;2023-03-03T06:17:22;102102.06;;;0.00;100.00
61472;BME280;47337;54.068;12.114;2023-03-03T06:19:50;102114.84;;;0.11;100.00
61472;BME280;47337;54.068;12.114;2023-03-03T06:22:15;102122.72;;;0.12;100.00
61472;BME280;47337;54.068;12.114;2023-03-03T06:24:41;102116.66;;;0.12;100.00
61472;BME280;47337;54.068;12.114;2023-03-03T06:27:06;102117.44;;;0.11;100.00
61472;BME280;47337;54.068;12.114;2023-03-03T06:29:33;102115.88;;;0.13;100.00
61472;BME280;47337;54.068;12.114;2023-03-03T06:31:58;102115.56;;;0.20;100.00
61472;BME280;47337;54.068;12.114;2023-03-03T06:34:24;102121.16;;;0.26;100.00
61472;BME280;47337;54.068;12.114;2023-03-03T06:36:49;102116.53;;;0.22;100.00
61472;BME280;47337;54.068;12.114;2023-03-03T06:39:14;102117.00;;;0.28;100.00
61472;BME280;47337;54.068;12.114;2023-03-03T06:41:42;102113.66;;;0.29;100.00
61472;BME280;47337;54.068;12.114;2023-03-03T06:44:08;102116.91;;;0.26;100.00
61472;BME280;47337;54.068;12.114;2023-03-03T06:46:33;102115.56;;;0.31;100.00
61472;BME280;47337;54.068;12.114;2023-03-03T06:48:58;102115.56;;;-143.61;100.00
61472;BME280;47337;54.068;12.114;2023-03-03T06:51:31;102115.56;;;0.31;100.00
61472;BME280;47337;54.068;12.114;2023-03-03T06:54:10;102113.06;;;0.45;100.00
61472;BME280;47337;54.068;12.114;2023-03-03T06:56:37;102113.06;;;0.45;100.00
61472;BME280;47337;54.068;12.114;2023-03-03T06:59:14;102113.06;;;0.45;100.00
61472;BME280;47337;54.068;12.114;2023-03-03T07:01:41;102115.19;;;0.50;100.00
61472;BME280;47337;54.068;12.114;2023-03-03T07:04:24;102115.75;;;0.58;100.00
61472;BME280;47337;54.068;12.114;2023-03-03T07:06:54;102119.09;;;0.68;100.00
61472;BME280;47337;54.068;12.114;2023-03-03T07:09:25;102125.25;;;0.82;100.00
61472;BME280;47337;54.068;12.114;2023-03-03T07:12:28;102128.00;;;0.97;100.00
61472;BME280;47337;54.068;12.114;2023-03-03T07:14:48;102136.09;;;1.01;100.00
61472;BME280;47337;54.068;12.114;2023-03-03T07:17:19;102135.84;;;1.10;100.00
61472;BME280;47337;54.068;12.114;2023-03-03T07:19:45;102145.47;;;1.24;100.00
61472;BME280;47337;54.068;12.114;2023-03-03T07:22:19;102141.19;;;1.25;100.00
61472;BME280;47337;54.068;12.114;2023-03-03T07:27:27;102146.09;;;1.33;100.00
61472;BME280;47337;54.068;12.114;2023-03-03T07:29:54;102151.91;;;1.42;100.00
61472;BME280;47337;54.068;12.114;2023-03-03T07:32:26;102154.56;;;1.56;100.00
61472;BME280;47337;54.068;12.114;2023-03-03T07:34:55;102146.84;;;1.69;100.00
61472;BME280;47337;54.068;12.114;2023-03-03T07:39:52;102149.69;;;1.98;100.00
61472;BME280;47337;54.068;12.114;2023-03-03T07:44:54;102144.03;;;2.17;100.00
61472;BME280;47337;54.068;12.114;2023-03-03T07:47:28;102153.81;;;2.34;100.00
61472;BME280;47337;54.068;12.114;2023-03-03T07:49:56;102144.75;;;2.41;100.00
61472;BME280;47337;54.068;12.114;2023-03-03T07:55:01;102140.66;;;2.57;100.00
61472;BME280;47337;54.068;12.114;2023-03-03T07:57:45;102135.88;;;2.50;100.00
61472;BME280;47337;54.068;12.114;2023-03-03T08:02:46;102126.56;;;2.80;100.00
61472;BME280;47337;54.068;12.114;2023-03-03T08:15:50;102085.81;;;3.48;100.00
61472;BME280;47337;54.068;12.114;2023-03-03T08:20:59;102058.78;;;3.74;100.00
61472;BME280;47337;54.068;12.114;2023-03-03T08:23:32;102046.34;;;3.98;100.00
61472;BME280;47337;54.068;12.114;2023-03-03T08:25:57;102046.19;;;4.26;100.00
61472;BME280;47337;54.068;12.114;2023-03-03T08:28:23;102046.19;;;-96.96;100.00
61472;BME280;47337;54.068;12.114;2023-03-03T08:30:48;102027.34;;;4.77;100.00
61472;BME280;47337;54.068;12.114;2023-03-03T08:33:19;102012.56;;;4.76;100.00
61472;BME280;47337;54.068;12.114;2023-03-03T08:35:44;55380.69;;;-143.62;100.00
61472;BME280;47337;54.068;12.114;2023-03-03T08:38:14;101994.66;;;4.98;100.00
61472;BME280;47337;54.068;12.114;2023-03-03T08:40:40;101982.41;;;4.96;100.00
61472;BME280;47337;54.068;12.114;2023-03-03T08:43:06;101973.84;;;5.14;100.00
61472;BME280;47337;54.068;12.114;2023-03-03T08:45:33;101964.97;;;5.11;100.00
61472;BME280;47337;54.068;12.114;2023-03-03T08:48:01;101954.97;;;5.19;100.00
61472;BME280;47337;54.068;12.114;2023-03-03T08:50:27;101951.69;;;5.23;100.00
61472;BME280;47337;54.068;12.114;2023-03-03T08:52:54;101943.63;;;5.34;100.00
61472;BME280;47337;54.068;12.114;2023-03-03T08:55:19;101936.97;;;5.41;100.00
61472;BME280;47337;54.068;12.114;2023-03-03T08:57:45;101929.25;;;5.42;100.00
61472;BME280;47337;54.068;12.114;2023-03-03T09:00:13;101930.56;;;5.68;100.00
61472;BME280;47337;54.068;12.114;2023-03-03T09:02:39;101930.75;;;5.55;100.00
61472;BME280;47337;54.068;12.114;2023-03-03T09:05:05;101925.94;;;5.80;100.00
61472;BME280;47337;54.068;12.114;2023-03-03T09:07:31;101931.06;;;5.79;100.00
61472;BME280;47337;54.068;12.114;2023-03-03T09:09:56;101932.53;;;5.74;100.00
61472;BME280;47337;54.068;12.114;2023-03-03T09:12:28;101926.72;;;5.62;100.00
61472;BME280;47337;54.068;12.114;2023-03-03T09:14:57;101920.66;;;5.61;100.00
61472;BME280;47337;54.068;12.114;2023-03-03T09:17:25;101911.13;;;5.79;100.00
61472;BME280;47337;54.068;12.114;2023-03-03T09:20:29;101918.56;;;6.07;100.00
61472;BME280;47337;54.068;12.114;2023-03-03T09:22:47;101903.16;;;5.94;100.00
61472;BME280;47337;54.068;12.114;2023-03-03T09:25:32;101891.78;;;5.57;100.00
61472;BME280;47337;54.068;12.114;2023-03-03T09:28:01;101874.06;;;5.32;100.00
61472;BME280;47337;54.068;12.114;2023-03-03T09:30:36;101890.94;;;5.75;100.00
61472;BME280;47337;54.068;12.114;2023-03-03T09:33:21;101887.75;;;5.63;100.00
61472;BME280;47337;54.068;12.114;2023-03-03T09:35:50;101881.47;;;5.95;100.00
61472;BME280;47337;54.068;12.114;2023-03-03T09:41:00;101867.66;;;5.78;100.00
61472;BME280;47337;54.068;12.114;2023-03-03T09:49:41;101853.97;;;5.65;100.00
61472;BME280;47337;54.068;12.114;2023-03-03T09:57:37;101858.28;;;6.19;100.00
61472;BME280;47337;54.068;12.114;2023-03-03T10:00:45;101860.94;;;6.40;100.00
61472;BME280;47337;54.068;12.114;2023-03-03T10:08:51;101826.47;;;6.66;100.00
61472;BME280;47337;54.068;12.114;2023-03-03T10:11:53;101807.72;;;6.75;100.00
61472;BME280;47337;54.068;12.114;2023-03-03T10:16:57;101784.28;;;6.76;100.00
61472;BME280;47337;54.068;12.114;2023-03-03T10:19:45;101784.84;;;6.90;100.00
61472;BME280;47337;54.068;12.114;2023-03-03T10:22:47;101782.66;;;6.99;100.00
61472;BME280;47337;54.068;12.114;2023-03-03T10:39:24;101727.59;;;7.15;100.00
61472;BME280;47337;54.068;12.114;2023-03-03T11:00:51;101710.63;;;6.83;100.00
61472;BME280;47337;54.068;12.114;2023-03-03T11:08:19;101712.97;;;5.57;100.00
61472;BME280;47337;54.068;12.114;2023-03-03T11:11:19;101737.72;;;5.67;100.00
61472;BME280;47337;54.068;12.114;2023-03-03T11:14:17;101738.19;;;5.77;100.00
61472;BME280;47337;54.068;12.114;2023-03-03T11:20:10;101732.06;;;5.95;100.00
61472;BME280;47337;54.068;12.114;2023-03-03T11:28:47;101729.75;;;5.64;100.00
61472;BME280;47337;54.068;12.114;2023-03-03T11:36:37;101749.03;;;5.86;100.00
61472;BME280;47337;54.068;12.114;2023-03-03T11:39:10;101738.97;;;5.94;100.00
61472;BME280;47337;54.068;12.114;2023-03-03T11:41:58;101725.44;;;5.83;100.00
61472;BME280;47337;54.068;12.114;2023-03-03T11:45:05;101724.75;;;5.49;100.00
61472;BME280;47337;54.068;12.114;2023-03-03T11:47:51;101725.19;;;5.03;100.00
61472;BME280;47337;54.068;12.114;2023-03-03T11:50:35;101735.34;;;5.34;100.00
61472;BME280;47337;54.068;12.114;2023-03-03T11:55:59;101757.88;;;4.98;100.00
61472;BME280;47337;54.068;12.114;2023-03-03T12:00:58;101768.72;;;4.72;100.00
61472;BME280;47337;54.068;12.114;2023-03-03T12:06:39;101783.09;;;4.48;100.00
61472;BME280;47337;54.068;12.114;2023-03-03T12:12:13;101795.31;;;4.32;100.00
61472;BME280;47337;54.068;12.114;2023-03-03T12:14:49;101804.00;;;4.33;100.00
61472;BME280;47337;54.068;12.114;2023-03-03T12:17:36;101800.66;;;4.35;100.00
61472;BME280;47337;54.068;12.114;2023-03-03T12:25:49;101799.53;;;4.30;100.00
61472;BME280;47337;54.068;12.114;2023-03-03T12:28:29;101804.03;;;4.00;100.00
61472;BME280;47337;54.068;12.114;2023-03-03T12:42:15;101794.34;;;3.98;100.00
61472;BME280;47337;54.068;12.114;2023-03-03T12:44:49;101787.13;;;4.09;100.00
61472;BME280;47337;54.068;12.114;2023-03-03T12:47:27;101781.03;;;4.08;100.00
61472;BME280;47337;54.068;12.114;2023-03-03T13:03:11;101727.59;;;4.47;100.00
61472;BME280;47337;54.068;12.114;2023-03-03T13:05:57;101723.91;;;4.42;100.00
61472;BME280;47337;54.068;12.114;2023-03-03T13:08:44;101721.16;;;4.57;100.00
61472;BME280;47337;54.068;12.114;2023-03-03T13:11:26;101712.78;;;4.62;100.00
61472;BME280;47337;54.068;12.114;2023-03-03T13:16:36;101688.09;;;4.90;100.00
61472;BME280;47337;54.068;12.114;2023-03-03T13:19:14;101677.34;;;4.82;100.00
61472;BME280;47337;54.068;12.114;2023-03-03T13:21:51;101667.78;;;5.00;100.00
61472;BME280;47337;54.068;12.114;2023-03-03T13:29:58;101630.72;;;5.43;100.00
61472;BME280;47337;54.068;12.114;2023-03-03T13:34:56;101604.75;;;5.44;100.00
61472;BME280;47337;54.068;12.114;2023-03-03T13:37:46;101595.63;;;5.54;100.00
61472;BME280;47337;54.068;12.114;2023-03-03T13:40:18;101592.84;;;5.49;100.00
61472;BME280;47337;54.068;12.114;2023-03-03T13:50:52;101578.47;;;5.38;100.00
61472;BME280;47337;54.068;12.114;2023-03-03T14:01:28;101583.38;;;5.51;100.00
61472;BME280;47337;54.068;12.114;2023-03-03T14:04:21;101580.84;;;5.53;100.00
61472;BME280;47337;54.068;12.114;2023-03-03T14:07:02;101572.47;;;5.41;100.00
61472;BME280;47337;54.068;12.114;2023-03-03T14:15:21;101550.66;;;5.37;100.00
61472;BME280;47337;54.068;12.114;2023-03-03T14:20:30;101554.81;;;5.34;100.00
61472;BME280;47337;54.068;12.114;2023-03-03T14:22:58;101556.81;;;5.39;100.00
61472;BME280;47337;54.068;12.114;2023-03-03T14:25:27;101553.44;;;5.42;100.00
61472;BME280;47337;54.068;12.114;2023-03-03T14:28:13;101542.75;;;5.36;100.00
61472;BME280;47337;54.068;12.114;2023-03-03T14:30:42;101555.75;;;5.55;100.00
61472;BME280;47337;54.068;12.114;2023-03-03T14:38:23;101539.94;;;5.50;100.00
61472;BME280;47337;54.068;12.114;2023-03-03T14:41:04;55380.69;;;-143.62;100.00
61472;BME280;47337;54.068;12.114;2023-03-03T14:43:39;55380.69;;;-143.62;100.00
61472;BME280;47337;54.068;12.114;2023-03-03T14:46:31;55380.69;;;-143.62;100.00
61472;BME280;47337;54.068;12.114;2023-03-03T14:49:10;55380.69;;;-143.62;100.00
61472;BME280;47337;54.068;12.114;2023-03-03T14:51:46;55380.69;;;-143.62;100.00
61472;BME280;47337;54.068;12.114;2023-03-03T14:54:21;55380.69;;;-143.62;100.00
61472;BME280;47337;54.068;12.114;2023-03-03T14:59:31;55380.69;;;-143.62;100.00
61472;BME280;47337;54.068;12.114;2023-03-03T15:04:27;55380.69;;;-143.62;100.00
61472;BME280;47337;54.068;12.114;2023-03-03T15:06:55;55380.69;;;-143.62;100.00
61472;BME280;47337;54.068;12.114;2023-03-03T15:09:37;55380.69;;;-143.62;100.00
61472;BME280;47337;54.068;12.114;2023-03-03T15:14:45;55380.69;;;-143.62;100.00
61472;BME280;47337;54.068;12.114;2023-03-03T15:22:50;55380.69;;;-143.62;100.00
61472;BME280;47337;54.068;12.114;2023-03-03T15:25:51;55380.69;;;-143.62;100.00
61472;BME280;47337;54.068;12.114;2023-03-03T15:33:45;55380.69;;;-143.62;100.00
61472;BME280;47337;54.068;12.114;2023-03-03T15:45:52;55380.69;;;-143.62;100.00
61472;BME280;47337;54.068;12.114;2023-03-03T16:03:57;55380.69;;;-143.62;100.00
61472;BME280;47337;54.068;12.114;2023-03-03T16:12:30;55380.69;;;-143.62;100.00
61472;BME280;47337;54.068;12.114;2023-03-03T16:15:31;55380.69;;;-143.62;100.00
61472;BME280;47337;54.068;12.114;2023-03-03T16:18:04;55380.69;;;-143.62;100.00
61472;BME280;47337;54.068;12.114;2023-03-03T16:20:37;55380.69;;;-143.62;100.00
61472;BME280;47337;54.068;12.114;2023-03-03T16:31:22;55380.69;;;-143.62;100.00
61472;BME280;47337;54.068;12.114;2023-03-03T16:37:17;55380.69;;;-143.62;100.00
61472;BME280;47337;54.068;12.114;2023-03-03T16:40:09;55380.69;;;-143.62;100.00
61472;BME280;47337;54.068;12.114;2023-03-03T16:42:36;55380.69;;;-143.62;100.00
61472;BME280;47337;54.068;12.114;2023-03-03T16:45:25;55380.69;;;-143.62;100.00
61472;BME280;47337;54.068;12.114;2023-03-03T17:07:02;55380.69;;;-143.62;100.00
61472;BME280;47337;54.068;12.114;2023-03-03T17:09:55;55380.69;;;-143.62;100.00
61472;BME280;47337;54.068;12.114;2023-03-03T17:20:29;55380.69;;;-143.62;100.00
61472;BME280;47337;54.068;12.114;2023-03-03T17:30:46;55380.69;;;-143.62;100.00
61472;BME280;47337;54.068;12.114;2023-03-03T17:44:27;55380.69;;;-143.62;100.00
61472;BME280;47337;54.068;12.114;2023-03-03T17:46:57;55380.69;;;-143.62;100.00
61472;BME280;47337;54.068;12.114;2023-03-03T17:54:40;55380.69;;;-143.62;100.00
61472;BME280;47337;54.068;12.114;2023-03-03T18:05:30;55380.69;;;-143.62;100.00
61472;BME280;47337;54.068;12.114;2023-03-03T18:18:54;55380.69;;;-143.62;100.00
61472;BME280;47337;54.068;12.114;2023-03-03T18:21:26;55380.69;;;-143.62;100.00